sensor_id;sensor_type;location;lat;lon;timestamp;pressure;altitude;pressure_sealevel;temperature;humidity
24336;BME280;33098;52.400;16.880;2023-03-15T00:00:46;99672.22;;;2.87;100.00
24336;BME280;33098;52.400;16.880;2023-03-15T00:03:18;99667.67;;;2.78;100.00
24336;BME280;33098;52.400;16.880;2023-03-15T00:05:45;99671.90;;;2.71;100.00
24336;BME280;33098;52.400;16.880;2023-03-15T00:08:12;99682.33;;;2.67;100.00
24336;BME280;33098;52.400;16.880;2023-03-15T00:10:43;99682.81;;;2.70;100.00
24336;BME280;33098;52.400;16.880;2023-03-15T00:13:10;99683.85;;;2.70;100.00
24336;BME280;33098;52.400;16.880;2023-03-15T00:15:43;99691.89;;;2.68;100.00
24336;BME280;33098;52.400;16.880;2023-03-15T00:18:09;99688.10;;;2.67;100.00
24336;BME280;33098;52.400;16.880;2023-03-15T00:20:36;99706.53;;;2.75;100.00
24336;BME280;33098;52.400;16.880;2023-03-15T00:23:02;99708.68;;;2.74;100.00
24336;BME280;33098;52.400;16.880;2023-03-15T00:25:29;99709.86;;;2.79;100.00
24336;BME280;33098;52.400;16.880;2023-03-15T00:27:55;99704.11;;;2.75;100.00
24336;BME280;33098;52.400;16.880;2023-03-15T00:30:22;99709.57;;;2.77;100.00
24336;BME280;33098;52.400;16.880;2023-03-15T00:32:48;99711.27;;;2.78;100.00
24336;BME280;33098;52.400;16.880;2023-03-15T00:35:14;99716.50;;;2.75;100.00
24336;BME280;33098;52.400;16.880;2023-03-15T00:37:44;99725.63;;;2.75;100.00
24336;BME280;33098;52.400;16.880;2023-03-15T00:40:11;99733.84;;;2.70;100.00
24336;BME280;33098;52.400;16.880;2023-03-15T00:42:38;99741.05;;;2.69;100.00
24336;BME280;33098;52.400;16.880;2023-03-15T00:45:05;99747.20;;;2.66;100.00
24336;BME280;33098;52.400;16.880;2023-03-15T00:47:31;99745.56;;;2.61;100.00
24336;BME280;33098;52.400;16.880;2023-03-15T00:49:59;99743.54;;;2.59;100.00
24336;BME280;33098;52.400;16.880;2023-03-15T00:52:26;99741.09;;;2.59;100.00
24336;BME280;33098;52.400;16.880;2023-03-15T00:54:53;99739.24;;;2.55;100.00
24336;BME280;33098;52.400;16.880;2023-03-15T00:57:19;99744.56;;;2.57;100.00
24336;BME280;33098;52.400;16.880;2023-03-15T00:59:46;99752.94;;;2.54;100.00
24336;BME280;33098;52.400;16.880;2023-03-15T01:02:13;99760.73;;;2.50;100.00
24336;BME280;33098;52.400;16.880;2023-03-15T01:04:39;99764.15;;;2.41;100.00
24336;BME280;33098;52.400;16.880;2023-03-15T01:07:06;99771.05;;;2.34;100.00
24336;BME280;33098;52.400;16.880;2023-03-15T01:09:32;99768.83;;;2.26;100.00
24336;BME280;33098;52.400;16.880;2023-03-15T01:11:58;99768.52;;;2.19;100.00
24336;BME280;33098;52.400;16.880;2023-03-15T01:14:25;99772.11;;;2.21;100.00
24336;BME280;33098;52.400;16.880;2023-03-15T01:16:51;99781.50;;;2.16;100.00
24336;BME280;33098;52.400;16.880;2023-03-15T01:19:18;99789.52;;;2.16;100.00
24336;BME280;33098;52.400;16.880;2023-03-15T01:21:45;99791.90;;;2.14;100.00
24336;BME280;33098;52.400;16.880;2023-03-15T01:24:13;99794.28;;;2.12;100.00
24336;BME280;33098;52.400;16.880;2023-03-15T01:26:40;99797.56;;;2.13;100.00
24336;BME280;33098;52.400;16.880;2023-03-15T01:29:06;99798.70;;;2.15;100.00
24336;BME280;33098;52.400;16.880;2023-03-15T01:31:33;99802.02;;;2.15;100.00
24336;BME280;33098;52.400;16.880;2023-03-15T01:33:59;99808.14;;;2.05;100.00
24336;BME280;33098;52.400;16.880;2023-03-15T01:36:29;99818.14;;;2.01;100.00
24336;BME280;33098;52.400;16.880;2023-03-15T01:38:56;99826.19;;;2.02;100.00
24336;BME280;33098;52.400;16.880;2023-03-15T01:41:27;99833.55;;;2.05;100.00
24336;BME280;33098;52.400;16.880;2023-03-15T01:43:53;99837.08;;;2.01;100.00
24336;BME280;33098;52.400;16.880;2023-03-15T01:46:24;99837.83;;;1.93;100.00
24336;BME280;33098;52.400;16.880;2023-03-15T01:51:27;99851.59;;;2.01;100.00
24336;BME280;33098;52.400;16.880;2023-03-15T01:54:00;99859.61;;;2.05;100.00
24336;BME280;33098;52.400;16.880;2023-03-15T01:56:28;99859.27;;;2.11;100.00
24336;BME280;33098;52.400;16.880;2023-03-15T01:58:55;99861.75;;;2.11;100.00
24336;BME280;33098;52.400;16.880;2023-03-15T02:01:23;99859.45;;;2.18;100.00
24336;BME280;33098;52.400;16.880;2023-03-15T02:03:59;99868.48;;;2.09;100.00
24336;BME280;33098;52.400;16.880;2023-03-15T02:06:29;99871.81;;;2.02;100.00
24336;BME280;33098;52.400;16.880;2023-03-15T02:09:01;99877.16;;;2.04;100.00
24336;BME280;33098;52.400;16.880;2023-03-15T02:11:31;99884.00;;;2.00;100.00
24336;BME280;33098;52.400;16.880;2023-03-15T02:13:59;99891.35;;;1.90;100.00
24336;BME280;33098;52.400;16.880;2023-03-15T02:16:27;99902.16;;;1.80;100.00
24336;BME280;33098;52.400;16.880;2023-03-15T02:18:58;99898.91;;;1.86;100.00
24336;BME280;33098;52.400;16.880;2023-03-15T02:24:00;99906.91;;;1.84;100.00
24336;BME280;33098;52.400;16.880;2023-03-15T02:26:33;99909.83;;;1.81;100.00
24336;BME280;33098;52.400;16.880;2023-03-15T02:29:03;99913.65;;;1.78;100.00
24336;BME280;33098;52.400;16.880;2023-03-15T02:31:30;99918.69;;;1.75;100.00
24336;BME280;33098;52.400;16.880;2023-03-15T02:34:04;99915.98;;;1.77;100.00
24336;BME280;33098;52.400;16.880;2023-03-15T02:36:32;99918.77;;;1.85;100.00
24336;BME280;33098;52.400;16.880;2023-03-15T02:38:59;99922.20;;;1.83;100.00
24336;BME280;33098;52.400;16.880;2023-03-15T02:41:33;99926.44;;;1.85;100.00
24336;BME280;33098;52.400;16.880;2023-03-15T02:44:03;99928.77;;;1.77;99.73
24336;BME280;33098;52.400;16.880;2023-03-15T02:46:31;99931.60;;;1.72;99.73
24336;BME280;33098;52.400;16.880;2023-03-15T02:48:58;99929.98;;;1.73;99.71
24336;BME280;33098;52.400;16.880;2023-03-15T02:51:27;99936.32;;;1.69;99.91
24336;BME280;33098;52.400;16.880;2023-03-15T02:53:54;99940.37;;;1.61;99.34
24336;BME280;33098;52.400;16.880;2023-03-15T02:56:21;99943.30;;;1.52;99.45
24336;BME280;33098;52.400;16.880;2023-03-15T02:58:47;99947.23;;;1.46;99.33
24336;BME280;33098;52.400;16.880;2023-03-15T03:01:14;99952.13;;;1.46;99.67
24336;BME280;33098;52.400;16.880;2023-03-15T03:03:42;99960.21;;;1.49;99.57
24336;BME280;33098;52.400;16.880;2023-03-15T03:06:09;99965.10;;;1.45;99.63
24336;BME280;33098;52.400;16.880;2023-03-15T03:08:37;99964.45;;;1.48;99.70
24336;BME280;33098;52.400;16.880;2023-03-15T03:11:04;99968.02;;;1.54;99.75
24336;BME280;33098;52.400;16.880;2023-03-15T03:13:30;99969.94;;;1.54;99.76
24336;BME280;33098;52.400;16.880;2023-03-15T03:15:57;99975.20;;;1.58;99.70
24336;BME280;33098;52.400;16.880;2023-03-15T03:18:25;99977.80;;;1.62;99.69
24336;BME280;33098;52.400;16.880;2023-03-15T03:20:55;99978.14;;;1.69;99.94
24336;BME280;33098;52.400;16.880;2023-03-15T03:23:23;99984.54;;;1.67;99.57
24336;BME280;33098;52.400;16.880;2023-03-15T03:25:54;99994.33;;;1.67;99.56
24336;BME280;33098;52.400;16.880;2023-03-15T03:28:22;99998.23;;;1.73;99.71
24336;BME280;33098;52.400;16.880;2023-03-15T03:30:50;100007.13;;;1.73;99.56
24336;BME280;33098;52.400;16.880;2023-03-15T03:33:16;100010.36;;;1.65;99.00
24336;BME280;33098;52.400;16.880;2023-03-15T03:35:43;100013.92;;;1.52;98.83
24336;BME280;33098;52.400;16.880;2023-03-15T03:38:10;100008.77;;;1.51;98.95
24336;BME280;33098;52.400;16.880;2023-03-15T03:40:39;100016.39;;;1.56;99.15
24336;BME280;33098;52.400;16.880;2023-03-15T03:43:06;100019.02;;;1.56;99.02
24336;BME280;33098;52.400;16.880;2023-03-15T03:45:33;100020.73;;;1.49;98.88
24336;BME280;33098;52.400;16.880;2023-03-15T03:47:59;100034.50;;;1.42;98.70
24336;BME280;33098;52.400;16.880;2023-03-15T03:50:26;100039.48;;;1.33;98.72
24336;BME280;33098;52.400;16.880;2023-03-15T03:52:53;100052.00;;;1.31;98.74
24336;BME280;33098;52.400;16.880;2023-03-15T03:55:26;100058.58;;;1.29;98.82
24336;BME280;33098;52.400;16.880;2023-03-15T03:57:53;100064.42;;;1.23;98.95
24336;BME280;33098;52.400;16.880;2023-03-15T04:00:33;100073.03;;;1.19;99.06
24336;BME280;33098;52.400;16.880;2023-03-15T04:03:00;100072.58;;;1.17;99.39
24336;BME280;33098;52.400;16.880;2023-03-15T04:05:28;100075.37;;;1.17;99.27
24336;BME280;33098;52.400;16.880;2023-03-15T04:07:55;100079.27;;;1.20;99.24
24336;BME280;33098;52.400;16.880;2023-03-15T04:10:22;100081.27;;;1.26;99.39
24336;BME280;33098;52.400;16.880;2023-03-15T04:12:52;100083.86;;;1.34;99.65
24336;BME280;33098;52.400;16.880;2023-03-15T04:15:19;100089.02;;;1.32;99.23
24336;BME280;33098;52.400;16.880;2023-03-15T04:17:48;100092.10;;;1.26;98.90
24336;BME280;33098;52.400;16.880;2023-03-15T04:20:14;100092.33;;;1.17;98.91
24336;BME280;33098;52.400;16.880;2023-03-15T04:22:44;100097.96;;;1.12;99.22
24336;BME280;33098;52.400;16.880;2023-03-15T04:25:22;100100.89;;;1.09;99.10
24336;BME280;33098;52.400;16.880;2023-03-15T04:28:05;100096.79;;;1.03;99.37
24336;BME280;33098;52.400;16.880;2023-03-15T04:30:48;100098.48;;;1.04;99.44
24336;BME280;33098;52.400;16.880;2023-03-15T04:33:38;100096.99;;;1.02;99.60
24336;BME280;33098;52.400;16.880;2023-03-15T04:36:30;100104.12;;;1.00;99.77
24336;BME280;33098;52.400;16.880;2023-03-15T04:39:32;100111.40;;;0.92;99.88
24336;BME280;33098;52.400;16.880;2023-03-15T04:42:20;100116.19;;;0.87;100.00
24336;BME280;33098;52.400;16.880;2023-03-15T04:45:02;100122.58;;;0.85;99.97
24336;BME280;33098;52.400;16.880;2023-03-15T04:47:49;100120.20;;;0.84;100.00
24336;BME280;33098;52.400;16.880;2023-03-15T04:50:40;100123.32;;;0.84;100.00
24336;BME280;33098;52.400;16.880;2023-03-15T04:53:15;100127.25;;;0.86;100.00
24336;BME280;33098;52.400;16.880;2023-03-15T04:56:01;100126.80;;;0.84;100.00
24336;BME280;33098;52.400;16.880;2023-03-15T04:59:02;100134.52;;;0.96;100.00
24336;BME280;33098;52.400;16.880;2023-03-15T05:01:55;100138.47;;;1.09;100.00
24336;BME280;33098;52.400;16.880;2023-03-15T05:04:57;100145.95;;;1.18;100.00
24336;BME280;33098;52.400;16.880;2023-03-15T05:07:59;100155.84;;;1.27;100.00
24336;BME280;33098;52.400;16.880;2023-03-15T05:10:43;100160.15;;;1.36;100.00
24336;BME280;33098;52.400;16.880;2023-03-15T05:13:23;100159.98;;;1.41;100.00
24336;BME280;33098;52.400;16.880;2023-03-15T05:16:02;100160.58;;;1.43;99.95
24336;BME280;33098;52.400;16.880;2023-03-15T05:18:49;100158.50;;;1.35;99.82
24336;BME280;33098;52.400;16.880;2023-03-15T05:21:34;100158.69;;;1.38;99.75
24336;BME280;33098;52.400;16.880;2023-03-15T05:24:27;100162.52;;;1.38;99.49
24336;BME280;33098;52.400;16.880;2023-03-15T05:26:59;100166.81;;;1.32;99.14
24336;BME280;33098;52.400;16.880;2023-03-15T05:29:38;100174.88;;;1.28;99.14
24336;BME280;33098;52.400;16.880;2023-03-15T05:32:23;100179.08;;;1.28;98.88
24336;BME280;33098;52.400;16.880;2023-03-15T05:35:12;100182.17;;;1.25;98.72
24336;BME280;33098;52.400;16.880;2023-03-15T05:38:07;100193.70;;;1.33;99.05
24336;BME280;33098;52.400;16.880;2023-03-15T05:40:50;100197.20;;;1.41;99.11
24336;BME280;33098;52.400;16.880;2023-03-15T05:43:36;100206.32;;;1.40;98.90
24336;BME280;33098;52.400;16.880;2023-03-15T05:46:21;100206.45;;;1.38;98.72
24336;BME280;33098;52.400;16.880;2023-03-15T05:49:16;100210.34;;;1.40;98.66
24336;BME280;33098;52.400;16.880;2023-03-15T05:52:02;100209.95;;;1.45;98.57
24336;BME280;33098;52.400;16.880;2023-03-15T05:54:54;100214.91;;;1.43;98.49
24336;BME280;33098;52.400;16.880;2023-03-15T05:57:39;100214.81;;;1.38;98.10
24336;BME280;33098;52.400;16.880;2023-03-15T06:00:23;100220.30;;;1.41;98.37
24336;BME280;33098;52.400;16.880;2023-03-15T06:02:51;100229.42;;;1.40;98.03
24336;BME280;33098;52.400;16.880;2023-03-15T06:05:27;100235.91;;;1.39;98.11
24336;BME280;33098;52.400;16.880;2023-03-15T06:07:55;100241.83;;;1.40;98.03
24336;BME280;33098;52.400;16.880;2023-03-15T06:10:22;100252.31;;;1.40;98.02
24336;BME280;33098;52.400;16.880;2023-03-15T06:12:49;100251.89;;;1.38;98.06
24336;BME280;33098;52.400;16.880;2023-03-15T06:15:18;100248.72;;;1.42;98.11
24336;BME280;33098;52.400;16.880;2023-03-15T06:17:45;100255.02;;;1.51;98.43
24336;BME280;33098;52.400;16.880;2023-03-15T06:20:12;100258.73;;;1.46;97.90
24336;BME280;33098;52.400;16.880;2023-03-15T06:22:38;100261.31;;;1.42;97.90
24336;BME280;33098;52.400;16.880;2023-03-15T06:25:11;100259.14;;;1.53;98.17
24336;BME280;33098;52.400;16.880;2023-03-15T06:27:37;100263.79;;;1.66;98.49
24336;BME280;33098;52.400;16.880;2023-03-15T06:30:04;100270.31;;;1.76;98.56
24336;BME280;33098;52.400;16.880;2023-03-15T06:32:31;100273.42;;;1.73;97.86
24336;BME280;33098;52.400;16.880;2023-03-15T06:34:57;100278.22;;;1.52;97.16
24336;BME280;33098;52.400;16.880;2023-03-15T06:37:24;100293.41;;;1.44;97.05
24336;BME280;33098;52.400;16.880;2023-03-15T06:39:50;100291.51;;;1.44;97.12
24336;BME280;33098;52.400;16.880;2023-03-15T06:42:17;100296.75;;;1.40;97.16
24336;BME280;33098;52.400;16.880;2023-03-15T06:44:44;100304.64;;;1.48;97.57
24336;BME280;33098;52.400;16.880;2023-03-15T06:47:12;100309.69;;;1.40;97.28
24336;BME280;33098;52.400;16.880;2023-03-15T06:49:39;100320.86;;;1.36;97.29
24336;BME280;33098;52.400;16.880;2023-03-15T06:52:05;100327.29;;;1.37;97.44
24336;BME280;33098;52.400;16.880;2023-03-15T06:54:32;100330.23;;;1.42;97.64
24336;BME280;33098;52.400;16.880;2023-03-15T06:56:59;100338.52;;;1.44;97.74
24336;BME280;33098;52.400;16.880;2023-03-15T06:59:26;100348.64;;;1.54;97.85
24336;BME280;33098;52.400;16.880;2023-03-15T07:01:52;100357.02;;;1.66;98.22
24336;BME280;33098;52.400;16.880;2023-03-15T07:04:18;100352.89;;;1.77;98.22
24336;BME280;33098;52.400;16.880;2023-03-15T07:06:45;100358.52;;;1.80;97.86
24336;BME280;33098;52.400;16.880;2023-03-15T07:09:11;100359.48;;;1.78;97.73
24336;BME280;33098;52.400;16.880;2023-03-15T07:11:38;100360.76;;;1.81;97.53
24336;BME280;33098;52.400;16.880;2023-03-15T07:14:04;100360.91;;;1.90;97.61
24336;BME280;33098;52.400;16.880;2023-03-15T07:16:31;100366.36;;;1.97;97.70
24336;BME280;33098;52.400;16.880;2023-03-15T07:18:57;100371.17;;;2.03;97.45
24336;BME280;33098;52.400;16.880;2023-03-15T07:21:25;100371.54;;;2.10;97.68
24336;BME280;33098;52.400;16.880;2023-03-15T07:23:51;100371.13;;;2.16;97.36
24336;BME280;33098;52.400;16.880;2023-03-15T07:26:18;100371.80;;;2.17;97.06
24336;BME280;33098;52.400;16.880;2023-03-15T07:28:44;100385.94;;;2.13;96.80
24336;BME280;33098;52.400;16.880;2023-03-15T07:31:11;100384.60;;;2.12;96.43
24336;BME280;33098;52.400;16.880;2023-03-15T07:33:38;100382.59;;;2.26;96.77
24336;BME280;33098;52.400;16.880;2023-03-15T07:36:05;100384.57;;;2.33;96.54
24336;BME280;33098;52.400;16.880;2023-03-15T07:38:32;100385.73;;;2.38;96.36
24336;BME280;33098;52.400;16.880;2023-03-15T07:41:03;100383.42;;;2.42;96.35
24336;BME280;33098;52.400;16.880;2023-03-15T07:43:30;100383.14;;;2.45;95.79
24336;BME280;33098;52.400;16.880;2023-03-15T07:46:12;100386.47;;;2.53;95.92
24336;BME280;33098;52.400;16.880;2023-03-15T07:48:38;100392.95;;;2.64;95.85
24336;BME280;33098;52.400;16.880;2023-03-15T07:51:05;100388.39;;;2.68;95.33
24336;BME280;33098;52.400;16.880;2023-03-15T07:53:31;100388.70;;;2.76;95.23
24336;BME280;33098;52.400;16.880;2023-03-15T07:55:58;100389.45;;;2.75;94.49
24336;BME280;33098;52.400;16.880;2023-03-15T07:58:25;100390.87;;;2.79;94.18
24336;BME280;33098;52.400;16.880;2023-03-15T08:00:54;100393.41;;;2.81;93.86
24336;BME280;33098;52.400;16.880;2023-03-15T08:03:22;100402.02;;;2.84;93.87
24336;BME280;33098;52.400;16.880;2023-03-15T08:05:49;100405.02;;;2.87;93.49
24336;BME280;33098;52.400;16.880;2023-03-15T08:08:16;100405.57;;;2.83;92.68
24336;BME280;33098;52.400;16.880;2023-03-15T08:10:42;100405.73;;;2.90;92.84
24336;BME280;33098;52.400;16.880;2023-03-15T08:13:09;100407.66;;;3.02;93.25
24336;BME280;33098;52.400;16.880;2023-03-15T08:15:36;100417.71;;;3.11;92.55
24336;BME280;33098;52.400;16.880;2023-03-15T08:18:02;100416.98;;;3.13;91.93
24336;BME280;33098;52.400;16.880;2023-03-15T08:20:29;100417.20;;;3.07;90.88
24336;BME280;33098;52.400;16.880;2023-03-15T08:22:55;100415.89;;;3.09;90.55
24336;BME280;33098;52.400;16.880;2023-03-15T08:25:22;100419.05;;;3.13;90.52
24336;BME280;33098;52.400;16.880;2023-03-15T08:27:49;100424.02;;;3.23;91.05
24336;BME280;33098;52.400;16.880;2023-03-15T08:30:16;100430.60;;;3.36;90.97
24336;BME280;33098;52.400;16.880;2023-03-15T08:32:44;100435.07;;;3.41;90.50
24336;BME280;33098;52.400;16.880;2023-03-15T08:35:11;100436.79;;;3.49;90.51
24336;BME280;33098;52.400;16.880;2023-03-15T08:37:40;100435.90;;;3.49;89.94
24336;BME280;33098;52.400;16.880;2023-03-15T08:40:07;100442.89;;;3.54;89.57
24336;BME280;33098;52.400;16.880;2023-03-15T08:42:36;100443.15;;;3.59;89.63
24336;BME280;33098;52.400;16.880;2023-03-15T08:45:03;100442.52;;;3.61;89.29
24336;BME280;33098;52.400;16.880;2023-03-15T08:47:30;100444.46;;;3.64;88.77
24336;BME280;33098;52.400;16.880;2023-03-15T08:49:56;100450.20;;;3.69;88.74
24336;BME280;33098;52.400;16.880;2023-03-15T08:52:23;100444.40;;;3.76;88.45
24336;BME280;33098;52.400;16.880;2023-03-15T08:54:49;100448.19;;;3.85;88.54
24336;BME280;33098;52.400;16.880;2023-03-15T08:57:15;100453.50;;;3.87;88.18
24336;BME280;33098;52.400;16.880;2023-03-15T08:59:42;100462.35;;;3.93;87.55
24336;BME280;33098;52.400;16.880;2023-03-15T09:02:09;100462.33;;;3.83;86.39
24336;BME280;33098;52.400;16.880;2023-03-15T09:04:36;100465.71;;;3.85;86.97
24336;BME280;33098;52.400;16.880;2023-03-15T09:07:03;100470.34;;;3.98;87.54
24336;BME280;33098;52.400;16.880;2023-03-15T09:09:29;100464.29;;;4.03;86.52
24336;BME280;33098;52.400;16.880;2023-03-15T09:11:55;100473.05;;;3.93;85.34
24336;BME280;33098;52.400;16.880;2023-03-15T09:14:22;100477.43;;;3.89;84.70
24336;BME280;33098;52.400;16.880;2023-03-15T09:16:49;100483.05;;;3.86;84.03
24336;BME280;33098;52.400;16.880;2023-03-15T09:19:15;100491.75;;;3.88;83.97
24336;BME280;33098;52.400;16.880;2023-03-15T09:21:41;100484.59;;;3.91;83.54
24336;BME280;33098;52.400;16.880;2023-03-15T09:24:10;100484.55;;;3.98;84.12
24336;BME280;33098;52.400;16.880;2023-03-15T09:26:36;100481.34;;;4.16;84.87
24336;BME280;33098;52.400;16.880;2023-03-15T09:29:03;100486.00;;;4.39;84.29
24336;BME280;33098;52.400;16.880;2023-03-15T09:31:30;100494.70;;;4.57;83.92
24336;BME280;33098;52.400;16.880;2023-03-15T09:33:56;100494.52;;;4.61;83.01
24336;BME280;33098;52.400;16.880;2023-03-15T09:36:24;100500.66;;;4.61;81.49
24336;BME280;33098;52.400;16.880;2023-03-15T09:38:50;100498.86;;;4.48;80.04
24336;BME280;33098;52.400;16.880;2023-03-15T09:41:27;100495.89;;;4.51;80.69
24336;BME280;33098;52.400;16.880;2023-03-15T09:44:00;100497.92;;;4.62;80.95
24336;BME280;33098;52.400;16.880;2023-03-15T09:46:34;100498.45;;;4.83;81.89
24336;BME280;33098;52.400;16.880;2023-03-15T09:49:13;100508.48;;;4.99;81.40
24336;BME280;33098;52.400;16.880;2023-03-15T09:51:50;100510.43;;;5.11;80.40
24336;BME280;33098;52.400;16.880;2023-03-15T09:57:17;100509.59;;;5.11;76.81
24336;BME280;33098;52.400;16.880;2023-03-15T09:59:45;100508.60;;;5.03;75.51
24336;BME280;33098;52.400;16.880;2023-03-15T10:02:23;100509.23;;;4.85;74.38
24336;BME280;33098;52.400;16.880;2023-03-15T10:04:51;100510.74;;;4.83;75.01
24336;BME280;33098;52.400;16.880;2023-03-15T10:07:21;100506.23;;;4.95;76.05
24336;BME280;33098;52.400;16.880;2023-03-15T10:09:47;100504.34;;;5.17;76.34
24336;BME280;33098;52.400;16.880;2023-03-15T10:12:14;100510.45;;;5.24;74.85
24336;BME280;33098;52.400;16.880;2023-03-15T10:17:13;100516.72;;;5.48;73.45
24336;BME280;33098;52.400;16.880;2023-03-15T10:19:51;100510.73;;;5.51;74.15
24336;BME280;33098;52.400;16.880;2023-03-15T10:22:26;100508.47;;;5.76;75.57
24336;BME280;33098;52.400;16.880;2023-03-15T10:27:35;100515.59;;;5.96;74.18
24336;BME280;33098;52.400;16.880;2023-03-15T10:30:11;100511.29;;;5.97;73.34
24336;BME280;33098;52.400;16.880;2023-03-15T10:32:41;100513.47;;;5.99;73.35
24336;BME280;33098;52.400;16.880;2023-03-15T10:35:16;100515.08;;;6.17;73.10
24336;BME280;33098;52.400;16.880;2023-03-15T10:37:43;100512.34;;;6.37;72.30
24336;BME280;33098;52.400;16.880;2023-03-15T10:40:10;100511.17;;;6.56;72.08
24336;BME280;33098;52.400;16.880;2023-03-15T10:42:41;100512.75;;;6.85;72.52
24336;BME280;33098;52.400;16.880;2023-03-15T10:45:20;100527.73;;;6.99;68.32
24336;BME280;33098;52.400;16.880;2023-03-15T10:47:47;100519.88;;;6.95;67.88
24336;BME280;33098;52.400;16.880;2023-03-15T10:50:18;100519.55;;;7.09;67.51
24336;BME280;33098;52.400;16.880;2023-03-15T10:52:53;100521.86;;;6.92;65.74
24336;BME280;33098;52.400;16.880;2023-03-15T10:55:24;100522.22;;;6.89;67.59
24336;BME280;33098;52.400;16.880;2023-03-15T10:57:55;100520.70;;;6.96;68.81
24336;BME280;33098;52.400;16.880;2023-03-15T11:00:29;100524.95;;;6.96;68.93
24336;BME280;33098;52.400;16.880;2023-03-15T11:03:05;100523.23;;;6.95;69.05
24336;BME280;33098;52.400;16.880;2023-03-15T11:05:42;100529.64;;;6.97;69.78
24336;BME280;33098;52.400;16.880;2023-03-15T11:08:13;100529.66;;;7.00;69.84
24336;BME280;33098;52.400;16.880;2023-03-15T11:10:39;100528.79;;;7.02;70.18
24336;BME280;33098;52.400;16.880;2023-03-15T11:13:19;100528.64;;;7.13;70.03
24336;BME280;33098;52.400;16.880;2023-03-15T11:16:03;100523.79;;;7.20;69.51
24336;BME280;33098;52.400;16.880;2023-03-15T11:18:35;100525.59;;;7.23;69.82
24336;BME280;33098;52.400;16.880;2023-03-15T11:21:03;100531.30;;;7.05;67.46
24336;BME280;33098;52.400;16.880;2023-03-15T11:23:32;100534.62;;;6.88;68.04
24336;BME280;33098;52.400;16.880;2023-03-15T11:26:00;100533.73;;;6.71;66.19
24336;BME280;33098;52.400;16.880;2023-03-15T11:28:27;100537.34;;;6.69;65.41
24336;BME280;33098;52.400;16.880;2023-03-15T11:30:56;100531.11;;;6.82;63.79
24336;BME280;33098;52.400;16.880;2023-03-15T11:33:27;100532.05;;;6.95;64.20
24336;BME280;33098;52.400;16.880;2023-03-15T11:35:58;100527.84;;;7.06;64.28
24336;BME280;33098;52.400;16.880;2023-03-15T11:38:30;100519.25;;;7.22;65.52
24336;BME280;33098;52.400;16.880;2023-03-15T11:41:01;100521.84;;;7.54;66.98
24336;BME280;33098;52.400;16.880;2023-03-15T11:43:33;100518.96;;;7.90;67.44
24336;BME280;33098;52.400;16.880;2023-03-15T11:46:08;100527.23;;;8.07;67.27
24336;BME280;33098;52.400;16.880;2023-03-15T11:48:46;100527.09;;;8.19;67.74
24336;BME280;33098;52.400;16.880;2023-03-15T11:51:13;100525.80;;;8.20;67.46
24336;BME280;33098;52.400;16.880;2023-03-15T11:53:41;100527.85;;;8.11;66.42
24336;BME280;33098;52.400;16.880;2023-03-15T11:56:23;100531.79;;;7.99;66.02
24336;BME280;33098;52.400;16.880;2023-03-15T12:01:27;100533.27;;;7.79;65.17
24336;BME280;33098;52.400;16.880;2023-03-15T12:06:39;100526.15;;;8.02;65.18
24336;BME280;33098;52.400;16.880;2023-03-15T12:09:37;100526.85;;;8.31;65.36
24336;BME280;33098;52.400;16.880;2023-03-15T12:12:04;100519.52;;;8.59;65.78
24336;BME280;33098;52.400;16.880;2023-03-15T12:14:35;100531.77;;;8.55;62.79
24336;BME280;33098;52.400;16.880;2023-03-15T12:19:47;100539.32;;;7.62;60.48
24336;BME280;33098;52.400;16.880;2023-03-15T12:22:16;100547.61;;;7.34;59.70
24336;BME280;33098;52.400;16.880;2023-03-15T12:24:44;100549.23;;;7.00;59.71
24336;BME280;33098;52.400;16.880;2023-03-15T12:29:41;100551.42;;;6.90;62.63
24336;BME280;33098;52.400;16.880;2023-03-15T12:32:15;100555.34;;;6.98;63.79
24336;BME280;33098;52.400;16.880;2023-03-15T12:34:44;100556.09;;;7.12;64.67
24336;BME280;33098;52.400;16.880;2023-03-15T12:39:57;100553.79;;;7.18;65.30
24336;BME280;33098;52.400;16.880;2023-03-15T12:50:42;100561.29;;;8.24;66.13
24336;BME280;33098;52.400;16.880;2023-03-15T12:55:58;100560.41;;;9.32;66.73
24336;BME280;33098;52.400;16.880;2023-03-15T12:58:38;100570.42;;;9.38;61.32
24336;BME280;33098;52.400;16.880;2023-03-15T13:01:06;100573.98;;;9.13;62.92
24336;BME280;33098;52.400;16.880;2023-03-15T13:03:33;100575.26;;;9.02;64.01
24336;BME280;33098;52.400;16.880;2023-03-15T13:16:38;100582.54;;;8.44;64.41
24336;BME280;33098;52.400;16.880;2023-03-15T13:21:41;100593.21;;;7.79;63.29
24336;BME280;33098;52.400;16.880;2023-03-15T13:24:18;100592.75;;;7.58;63.20
24336;BME280;33098;52.400;16.880;2023-03-15T13:27:03;100586.80;;;7.87;64.80
24336;BME280;33098;52.400;16.880;2023-03-15T13:29:34;100580.90;;;8.37;65.04
24336;BME280;33098;52.400;16.880;2023-03-15T13:32:14;100584.58;;;8.46;64.79
24336;BME280;33098;52.400;16.880;2023-03-15T13:34:42;100591.94;;;8.55;64.83
24336;BME280;33098;52.400;16.880;2023-03-15T13:37:19;100592.25;;;8.69;64.51
24336;BME280;33098;52.400;16.880;2023-03-15T13:42:20;100593.88;;;9.44;63.76
24336;BME280;33098;52.400;16.880;2023-03-15T13:47:31;100602.45;;;9.83;64.41
24336;BME280;33098;52.400;16.880;2023-03-15T13:49:57;100606.73;;;9.88;64.51
24336;BME280;33098;52.400;16.880;2023-03-15T13:52:23;100609.03;;;9.80;64.55
24336;BME280;33098;52.400;16.880;2023-03-15T13:54:51;100617.16;;;9.68;64.60
24336;BME280;33098;52.400;16.880;2023-03-15T13:57:18;100624.97;;;9.53;64.44
24336;BME280;33098;52.400;16.880;2023-03-15T13:59:57;100633.21;;;9.22;63.66
24336;BME280;33098;52.400;16.880;2023-03-15T14:04:55;100648.41;;;8.70;64.36
24336;BME280;33098;52.400;16.880;2023-03-15T14:07:25;100656.20;;;8.48;64.85